createdAt,value
2023-03-20T00:01:28.564Z,2.30
2023-03-20T00:03:55.917Z,1.80
2023-03-20T00:06:25.443Z,1.80
2023-03-20T00:08:53.955Z,1.95
2023-03-20T00:11:29.384Z,2.00
2023-03-20T00:14:02.089Z,1.95
2023-03-20T00:16:34.548Z,1.90
2023-03-20T00:19:03.393Z,1.63
2023-03-20T00:21:31.611Z,1.80
2023-03-20T00:23:58.875Z,1.70
2023-03-20T00:26:28.443Z,2.00
2023-03-20T00:28:56.496Z,1.98
2023-03-20T00:31:38.441Z,2.03
2023-03-20T00:34:16.196Z,1.83
2023-03-20T00:36:43.262Z,2.45
2023-03-20T00:39:10.127Z,4.53
2023-03-20T00:41:39.704Z,5.78
2023-03-20T00:44:31.942Z,6.95
2023-03-20T00:47:01.778Z,7.30
2023-03-20T00:49:34.539Z,8.05
2023-03-20T00:52:03.587Z,7.03
2023-03-20T00:54:31.450Z,7.13
2023-03-20T00:57:00.389Z,7.18
2023-03-20T00:59:31.448Z,6.93
2023-03-20T01:01:59.396Z,7.25
2023-03-20T01:04:34.585Z,7.03
2023-03-20T01:07:01.687Z,7.10
2023-03-20T01:09:28.615Z,6.75
2023-03-20T01:11:55.705Z,7.13
2023-03-20T01:14:22.551Z,6.75
2023-03-20T01:16:49.463Z,7.18
2023-03-20T01:19:16.925Z,6.78
2023-03-20T01:21:44.289Z,6.30
2023-03-20T01:24:11.151Z,6.78
2023-03-20T01:26:43.626Z,6.55
2023-03-20T01:29:25.618Z,6.10
2023-03-20T01:31:53.244Z,4.75
2023-03-20T01:34:21.077Z,3.90
2023-03-20T01:36:53.481Z,4.47
2023-03-20T01:39:31.823Z,2.95
2023-03-20T01:41:59.612Z,2.63
2023-03-20T01:44:32.176Z,2.67
2023-03-20T01:47:00.203Z,2.75
2023-03-20T01:49:28.776Z,2.42
2023-03-20T01:51:57.954Z,2.58
2023-03-20T01:54:32.849Z,2.50
2023-03-20T01:57:17.177Z,3.00
2023-03-20T02:00:15.702Z,2.78
2023-03-20T02:02:47.675Z,2.65
2023-03-20T02:05:18.010Z,2.75
2023-03-20T02:07:51.192Z,2.63
2023-03-20T02:10:19.574Z,2.75
2023-03-20T02:12:48.211Z,2.60
2023-03-20T02:15:16.904Z,2.72
2023-03-20T02:17:44.122Z,3.15
2023-03-20T02:20:37.961Z,2.72
2023-03-20T02:23:20.160Z,3.40
2023-03-20T02:26:36.733Z,4.38
2023-03-20T02:29:18.594Z,4.38
2023-03-20T02:32:07.294Z,4.15
2023-03-20T02:34:50.617Z,4.03
2023-03-20T02:37:36.175Z,3.90
2023-03-20T02:40:33.527Z,4.28
2023-03-20T02:43:28.741Z,3.78
2023-03-20T02:46:26.330Z,3.80
2023-03-20T02:48:56.279Z,3.90
2023-03-20T02:51:25.132Z,4.20
2023-03-20T02:53:59.731Z,3.58
2023-03-20T02:56:37.604Z,3.00
2023-03-20T02:59:26.911Z,2.22
2023-03-20T03:02:16.302Z,2.22
2023-03-20T03:04:53.255Z,2.10
2023-03-20T03:07:27.346Z,2.35
2023-03-20T03:10:04.113Z,2.05
2023-03-20T03:12:37.875Z,2.40
2023-03-20T03:15:10.875Z,2.50
2023-03-20T03:17:39.966Z,2.87
2023-03-20T03:20:14.998Z,2.80
2023-03-20T03:22:42.481Z,3.20
2023-03-20T03:25:12.604Z,2.97
2023-03-20T03:27:43.625Z,2.65
2023-03-20T03:30:32.638Z,2.45
2023-03-20T03:33:28.367Z,2.15
2023-03-20T03:36:06.549Z,2.38
2023-03-20T03:39:17.762Z,1.80
2023-03-20T03:41:55.705Z,1.80
2023-03-20T03:44:31.759Z,1.85
2023-03-20T03:47:11.725Z,1.70
2023-03-20T03:49:44.061Z,1.80
2023-03-20T03:52:15.595Z,1.85
2023-03-20T03:54:49.508Z,2.00
2023-03-20T03:59:50.547Z,1.77
2023-03-20T04:02:20.500Z,1.70
2023-03-20T04:04:52.043Z,1.80
2023-03-20T04:07:19.063Z,1.50
2023-03-20T04:09:46.086Z,1.58
2023-03-20T04:12:33.345Z,1.50
2023-03-20T04:15:02.971Z,1.98
2023-03-20T04:17:30.595Z,1.58
2023-03-20T04:19:57.633Z,1.83
2023-03-20T04:22:24.933Z,1.80
2023-03-20T04:24:52.778Z,1.52
2023-03-20T04:27:20.236Z,1.67
2023-03-20T04:29:47.785Z,1.42
2023-03-20T04:32:14.660Z,1.42
2023-03-20T04:34:41.739Z,1.75
2023-03-20T04:37:08.647Z,1.60
2023-03-20T04:39:36.877Z,1.73
2023-03-20T04:42:05.648Z,1.90
2023-03-20T04:44:32.817Z,1.83
2023-03-20T04:47:00.340Z,1.88
2023-03-20T04:49:27.405Z,1.65
2023-03-20T04:51:54.483Z,1.77
2023-03-20T04:54:21.776Z,1.67
2023-03-20T04:56:48.621Z,1.95
2023-03-20T04:59:15.561Z,1.80
2023-03-20T05:01:42.421Z,1.52
2023-03-20T05:04:09.468Z,1.77
2023-03-20T05:06:36.543Z,1.48
2023-03-20T05:09:04.122Z,1.48
2023-03-20T05:11:31.115Z,1.60
2023-03-20T05:13:58.093Z,1.52
2023-03-20T05:16:24.986Z,1.60
2023-03-20T05:18:51.983Z,1.60
2023-03-20T05:21:18.879Z,1.75
2023-03-20T05:23:45.729Z,1.55
2023-03-20T05:26:12.585Z,1.17
2023-03-20T05:28:39.402Z,1.40
2023-03-20T05:31:06.574Z,1.40
2023-03-20T05:33:34.091Z,1.40
2023-03-20T05:36:01.997Z,1.50
2023-03-20T05:38:28.859Z,1.60
2023-03-20T05:40:59.981Z,1.42
2023-03-20T05:43:29.081Z,1.50
2023-03-20T05:45:56.863Z,1.50
2023-03-20T05:48:24.061Z,1.50
2023-03-20T05:50:50.984Z,1.48
2023-03-20T05:53:17.817Z,1.50
2023-03-20T05:55:44.853Z,1.65
2023-03-20T05:58:12.493Z,1.55
2023-03-20T06:00:39.878Z,1.50
2023-03-20T06:03:09.677Z,1.30
2023-03-20T06:05:36.837Z,1.40
2023-03-20T06:08:05.064Z,1.90
2023-03-20T06:10:32.246Z,1.52
2023-03-20T06:13:01.334Z,1.60
2023-03-20T06:15:28.973Z,1.60
2023-03-20T06:17:56.733Z,1.52
2023-03-20T06:20:23.722Z,1.42
2023-03-20T06:22:51.024Z,1.30
2023-03-20T06:25:18.392Z,1.35
2023-03-20T06:27:47.826Z,1.50
2023-03-20T06:30:16.189Z,1.42
2023-03-20T06:32:43.899Z,1.40
2023-03-20T06:35:11.524Z,1.50
2023-03-20T06:37:38.588Z,1.50
2023-03-20T06:40:06.934Z,1.48
2023-03-20T06:42:33.847Z,1.60
2023-03-20T06:45:00.852Z,1.80
2023-03-20T06:47:28.347Z,2.00
2023-03-20T06:49:55.252Z,2.30
2023-03-20T06:52:22.777Z,2.30
2023-03-20T06:54:51.312Z,2.08
2023-03-20T06:57:18.852Z,2.10
2023-03-20T06:59:45.773Z,1.90
2023-03-20T07:02:12.714Z,1.80
2023-03-20T07:04:39.994Z,2.00
2023-03-20T07:07:07.059Z,2.05
2023-03-20T07:09:34.175Z,1.80
2023-03-20T07:12:02.466Z,2.17
2023-03-20T07:14:29.348Z,1.70
2023-03-20T07:16:56.685Z,1.70
2023-03-20T07:19:23.962Z,1.90
2023-03-20T07:21:57.416Z,2.25
2023-03-20T07:24:24.976Z,2.05
2023-03-20T07:26:51.841Z,1.85
2023-03-20T07:29:18.803Z,1.80
2023-03-20T07:31:45.797Z,1.63
2023-03-20T07:34:13.376Z,2.35
2023-03-20T07:36:42.066Z,2.22
2023-03-20T07:39:09.394Z,2.28
2023-03-20T07:41:36.469Z,2.30
2023-03-20T07:44:03.488Z,1.88
2023-03-20T07:46:30.487Z,2.20
2023-03-20T07:48:58.273Z,2.63
2023-03-20T07:51:25.853Z,2.10
2023-03-20T07:53:52.905Z,2.50
2023-03-20T07:56:19.747Z,2.40
2023-03-20T07:58:46.784Z,2.65
2023-03-20T08:01:13.722Z,2.60
2023-03-20T08:03:40.775Z,3.00
2023-03-20T08:06:09.665Z,3.08
2023-03-20T08:08:36.842Z,3.13
2023-03-20T08:11:03.845Z,3.13
2023-03-20T08:13:30.875Z,3.40
2023-03-20T08:15:58.158Z,2.97
2023-03-20T08:18:25.256Z,3.20
2023-03-20T08:20:52.322Z,3.45
2023-03-20T08:23:20.817Z,3.80
2023-03-20T08:25:49.616Z,3.90
2023-03-20T08:28:17.274Z,4.20
2023-03-20T08:30:44.612Z,4.57
2023-03-20T08:33:11.919Z,4.32
2023-03-20T08:35:39.099Z,4.80
2023-03-20T08:38:06.365Z,4.63
2023-03-20T08:40:33.293Z,4.60
2023-03-20T08:43:00.412Z,5.00
2023-03-20T08:45:27.284Z,5.13
2023-03-20T08:47:55.019Z,5.07
2023-03-20T08:50:21.972Z,4.80
2023-03-20T08:52:48.830Z,4.63
2023-03-20T08:55:16.507Z,5.10
2023-03-20T08:57:44.188Z,5.07
2023-03-20T09:00:14.382Z,5.22
2023-03-20T09:02:42.455Z,4.40
2023-03-20T09:05:10.769Z,4.82
2023-03-20T09:07:38.170Z,5.18
2023-03-20T09:10:06.127Z,5.50
2023-03-20T09:12:33.090Z,5.22
2023-03-20T09:15:00.282Z,5.10
2023-03-20T09:17:27.359Z,5.63
2023-03-20T09:19:54.471Z,5.28
2023-03-20T09:22:21.291Z,5.00
2023-03-20T09:24:48.145Z,5.70
2023-03-20T09:27:15.408Z,4.07
2023-03-20T09:29:43.558Z,3.92
2023-03-20T09:32:14.966Z,4.18
2023-03-20T09:34:42.315Z,4.20
2023-03-20T09:37:09.553Z,4.93
2023-03-20T09:39:36.461Z,5.97
2023-03-20T09:42:32.102Z,5.03
2023-03-20T09:45:28.405Z,5.13
2023-03-20T09:48:11.261Z,4.32
2023-03-20T09:51:00.434Z,3.97
2023-03-20T09:53:33.646Z,2.90
2023-03-20T09:56:00.882Z,3.85
2023-03-20T09:58:37.441Z,3.42
2023-03-20T10:01:08.429Z,3.40
2023-03-20T10:03:54.068Z,3.13
2023-03-20T10:06:21.074Z,2.75
2023-03-20T10:08:47.896Z,2.58
2023-03-20T10:11:23.820Z,2.50
2023-03-20T10:14:05.840Z,2.20
2023-03-20T10:16:44.847Z,2.30
2023-03-20T10:19:45.591Z,2.40
2023-03-20T10:22:31.510Z,2.30
2023-03-20T10:25:13.195Z,2.00
2023-03-20T10:27:47.072Z,2.35
2023-03-20T10:33:18.366Z,2.40
2023-03-20T10:36:09.561Z,2.10
2023-03-20T10:38:57.984Z,1.90
2023-03-20T10:41:33.330Z,1.67
2023-03-20T10:44:01.415Z,1.50
2023-03-20T10:46:35.596Z,1.95
2023-03-20T10:49:14.940Z,1.80
2023-03-20T10:51:47.610Z,1.80
2023-03-20T10:54:43.632Z,1.60
2023-03-20T10:57:18.694Z,1.60
2023-03-20T10:59:50.104Z,1.35
2023-03-20T11:02:19.095Z,1.48
2023-03-20T11:04:46.150Z,1.48
2023-03-20T11:07:35.887Z,1.10
2023-03-20T11:10:06.159Z,1.30
2023-03-20T11:12:47.719Z,1.40
2023-03-20T11:15:25.147Z,1.40
2023-03-20T11:17:57.936Z,1.48
2023-03-20T11:20:26.885Z,1.40
2023-03-20T11:23:03.505Z,1.60
2023-03-20T11:25:34.236Z,1.35
2023-03-20T11:28:27.075Z,1.40
2023-03-20T11:31:31.426Z,1.17
2023-03-20T11:34:26.877Z,1.10
2023-03-20T11:37:16.682Z,1.30
2023-03-20T11:39:56.253Z,1.30
2023-03-20T11:42:25.929Z,1.20
2023-03-20T11:45:15.937Z,1.42
2023-03-20T11:47:43.317Z,1.08
2023-03-20T11:50:41.614Z,1.42
2023-03-20T11:53:23.344Z,1.40
2023-03-20T11:56:15.321Z,1.52
2023-03-20T11:59:18.215Z,1.70
2023-03-20T12:01:54.118Z,1.60
2023-03-20T12:04:26.248Z,1.50
2023-03-20T12:07:21.989Z,1.10
2023-03-20T12:09:59.597Z,1.10
2023-03-20T12:12:41.385Z,1.48
2023-03-20T12:15:28.282Z,1.02
2023-03-20T12:18:07.482Z,1.00
2023-03-20T12:20:45.102Z,1.00
2023-03-20T12:23:14.898Z,0.98
2023-03-20T12:25:50.818Z,0.88
2023-03-20T12:28:22.576Z,0.88
2023-03-20T12:31:15.621Z,0.68
2023-03-20T12:33:42.494Z,1.00
2023-03-20T12:36:17.738Z,1.00
2023-03-20T12:38:46.558Z,0.90
2023-03-20T12:41:19.731Z,0.60
2023-03-20T12:44:05.398Z,0.75
2023-03-20T12:46:47.284Z,0.90
2023-03-20T12:49:14.212Z,0.65
2023-03-20T12:51:52.577Z,0.88
2023-03-20T12:54:45.803Z,0.93
2023-03-20T12:57:25.465Z,0.70
2023-03-20T13:00:10.947Z,0.68
2023-03-20T13:02:40.809Z,0.80
2023-03-20T13:05:16.953Z,0.80
2023-03-20T13:07:56.780Z,0.60
2023-03-20T13:10:32.444Z,0.77
2023-03-20T13:13:21.089Z,0.60
2023-03-20T13:15:50.981Z,0.65
2023-03-20T13:18:39.827Z,0.45
2023-03-20T13:21:18.560Z,0.80
2023-03-20T13:24:17.505Z,0.60
2023-03-20T13:27:13.231Z,0.77
2023-03-20T13:29:54.888Z,0.80
2023-03-20T13:32:36.947Z,1.80
2023-03-20T13:35:18.341Z,1.30
2023-03-20T13:37:54.541Z,1.00
2023-03-20T13:40:28.804Z,1.13
2023-03-20T13:43:16.269Z,1.10
2023-03-20T13:45:43.944Z,1.00
2023-03-20T13:48:19.711Z,0.90
2023-03-20T13:51:02.210Z,1.20
2023-03-20T13:53:51.146Z,1.13
2023-03-20T13:56:36.070Z,0.90
2023-03-20T13:59:35.035Z,0.95
2023-03-20T14:02:38.254Z,0.88
2023-03-20T14:05:23.289Z,0.90
2023-03-20T14:07:56.700Z,0.95
2023-03-20T14:10:24.437Z,0.70
2023-03-20T14:13:11.289Z,0.90
2023-03-20T14:15:44.224Z,0.80
2023-03-20T14:18:17.368Z,0.87
2023-03-20T14:20:52.256Z,1.30
2023-03-20T14:23:25.691Z,1.17
2023-03-20T14:25:56.448Z,1.00
2023-03-20T14:28:28.147Z,1.10
2023-03-20T14:31:25.969Z,1.08
2023-03-20T14:34:11.941Z,1.10
2023-03-20T14:36:44.791Z,1.00
2023-03-20T14:39:18.471Z,1.15
2023-03-20T14:42:17.563Z,1.05
2023-03-20T14:45:10.948Z,1.45
2023-03-20T14:47:46.841Z,1.17
2023-03-20T14:50:30.874Z,1.35
2023-03-20T14:55:48.519Z,1.30
2023-03-20T14:58:56.279Z,1.17
2023-03-20T15:01:23.118Z,1.40
2023-03-20T15:04:22.053Z,1.20
2023-03-20T15:07:03.290Z,1.17
2023-03-20T15:09:33.337Z,1.30
2023-03-20T15:12:04.605Z,1.20
2023-03-20T15:14:42.469Z,1.10
2023-03-20T15:17:24.762Z,1.10
2023-03-20T15:20:01.172Z,1.10
2023-03-20T15:22:28.089Z,1.17
2023-03-20T15:24:56.792Z,1.08
2023-03-20T15:27:29.845Z,1.23
2023-03-20T15:30:00.123Z,1.23
2023-03-20T15:32:27.054Z,1.10
2023-03-20T15:34:53.971Z,1.30
2023-03-20T15:37:26.348Z,1.20
2023-03-20T15:39:56.943Z,0.98
2023-03-20T15:42:25.641Z,1.10
2023-03-20T15:44:54.422Z,1.30
2023-03-20T15:47:24.631Z,2.17
2023-03-20T15:50:04.629Z,2.90
2023-03-20T15:52:42.565Z,1.88
2023-03-20T15:55:17.757Z,2.05
2023-03-20T15:57:47.449Z,1.48
2023-03-20T16:00:23.239Z,1.40
2023-03-20T16:02:53.749Z,1.58
2023-03-20T16:05:25.351Z,1.50
2023-03-20T16:07:52.198Z,1.40
2023-03-20T16:10:31.616Z,1.73
2023-03-20T16:12:58.855Z,1.70
2023-03-20T16:15:29.782Z,1.80
2023-03-20T16:17:59.385Z,2.10
2023-03-20T16:20:33.443Z,2.13
2023-03-20T16:23:04.994Z,2.40
2023-03-20T16:25:31.873Z,2.42
2023-03-20T16:27:59.004Z,2.38
2023-03-20T16:30:35.084Z,2.20
2023-03-20T16:33:07.203Z,2.00
2023-03-20T16:35:45.319Z,2.38
2023-03-20T16:38:26.083Z,2.30
2023-03-20T16:41:13.915Z,2.10
2023-03-20T16:43:41.354Z,1.75
2023-03-20T16:46:10.640Z,2.20
2023-03-20T16:48:39.258Z,2.38
2023-03-20T16:51:22.922Z,2.10
2023-03-20T16:53:53.816Z,2.28
2023-03-20T16:56:33.013Z,2.60
2023-03-20T16:59:06.319Z,2.58
2023-03-20T17:01:33.339Z,2.63
2023-03-20T17:04:21.321Z,3.05
2023-03-20T17:06:54.993Z,2.55
2023-03-20T17:09:31.257Z,2.78
2023-03-20T17:12:18.484Z,2.05
2023-03-20T17:14:45.706Z,2.30
2023-03-20T17:17:19.525Z,2.00
2023-03-20T17:19:49.437Z,1.77
2023-03-20T17:22:25.330Z,1.83
2023-03-20T17:24:53.076Z,2.03
2023-03-20T17:27:21.145Z,1.98
2023-03-20T17:29:51.733Z,2.13
2023-03-20T17:32:23.973Z,2.10
2023-03-20T17:34:51.314Z,1.80
2023-03-20T17:37:24.261Z,1.92
2023-03-20T17:39:51.344Z,2.00
2023-03-20T17:42:20.030Z,1.65
2023-03-20T17:44:48.459Z,1.90
2023-03-20T17:47:17.453Z,1.90
2023-03-20T17:49:45.096Z,1.90
2023-03-20T17:52:20.381Z,1.92
2023-03-20T17:54:47.615Z,2.47
2023-03-20T17:57:20.383Z,1.92
2023-03-20T17:59:47.763Z,2.10
2023-03-20T18:02:14.596Z,1.83
2023-03-20T18:04:42.222Z,2.15
2023-03-20T18:07:10.102Z,1.60
2023-03-20T18:09:36.987Z,2.20
2023-03-20T18:12:04.072Z,1.70
2023-03-20T18:14:31.034Z,1.90
2023-03-20T18:16:57.867Z,1.80
2023-03-20T18:19:28.509Z,2.08
2023-03-20T18:21:56.928Z,1.90
2023-03-20T18:24:24.156Z,1.90
2023-03-20T18:26:53.048Z,1.85
2023-03-20T18:29:20.713Z,1.98
2023-03-20T18:31:50.944Z,2.03
2023-03-20T18:34:17.957Z,1.70
2023-03-20T18:36:45.988Z,1.73
2023-03-20T18:39:23.763Z,2.00
2023-03-20T18:41:51.453Z,2.00
2023-03-20T18:44:18.368Z,1.92
2023-03-20T18:46:45.271Z,2.10
2023-03-20T18:49:16.677Z,2.08
2023-03-20T18:51:44.362Z,1.95
2023-03-20T18:54:11.579Z,1.75
2023-03-20T18:56:38.592Z,1.80
2023-03-20T18:59:08.016Z,1.67
2023-03-20T19:01:35.975Z,1.85
2023-03-20T19:04:03.402Z,1.60
2023-03-20T19:06:32.272Z,1.70
2023-03-20T19:08:59.493Z,1.90
2023-03-20T19:11:26.453Z,2.20
2023-03-20T19:13:54.018Z,1.85
2023-03-20T19:16:31.850Z,1.92
2023-03-20T19:19:01.511Z,1.92
2023-03-20T19:21:30.045Z,1.88
2023-03-20T19:23:59.327Z,1.95
2023-03-20T19:26:28.330Z,1.70
2023-03-20T19:28:57.846Z,2.33
2023-03-20T19:31:26.267Z,2.15
2023-03-20T19:33:53.534Z,1.80
2023-03-20T19:36:26.122Z,2.20
2023-03-20T19:38:53.638Z,2.25
2023-03-20T19:41:20.692Z,2.55
2023-03-20T19:43:52.975Z,3.92
2023-03-20T19:46:38.040Z,4.50
2023-03-20T19:49:06.644Z,3.80
2023-03-20T19:51:33.744Z,3.22
2023-03-20T19:54:00.737Z,2.90
2023-03-20T19:56:27.621Z,2.60
2023-03-20T19:58:54.921Z,2.60
2023-03-20T20:01:25.150Z,2.60
2023-03-20T20:03:57.751Z,2.47
2023-03-20T20:06:30.149Z,1.90
2023-03-20T20:08:59.031Z,2.17
2023-03-20T20:11:25.900Z,2.60
2023-03-20T20:14:09.640Z,2.15
2023-03-20T20:16:39.776Z,2.05
2023-03-20T20:19:07.089Z,2.10
2023-03-20T20:24:21.799Z,2.20
2023-03-20T20:26:54.880Z,1.90
2023-03-20T20:29:27.121Z,2.40
2023-03-20T20:31:54.125Z,2.38
2023-03-20T20:39:55.108Z,2.40
2023-03-20T20:42:22.966Z,2.72
2023-03-20T20:44:49.824Z,3.38
2023-03-20T20:47:17.255Z,3.58
2023-03-20T20:49:46.720Z,3.85
2023-03-20T20:52:14.477Z,3.58
2023-03-20T20:54:44.551Z,3.75
2023-03-20T20:57:12.325Z,4.30
2023-03-20T20:59:40.428Z,4.32
2023-03-20T21:02:11.600Z,4.30
2023-03-20T21:04:39.837Z,5.22
2023-03-20T21:07:10.668Z,4.88
2023-03-20T21:09:38.203Z,5.90
2023-03-20T21:12:05.821Z,5.55
2023-03-20T21:14:32.759Z,5.70
2023-03-20T21:17:02.604Z,5.90
2023-03-20T21:19:40.797Z,6.10
2023-03-20T21:22:09.977Z,5.80
2023-03-20T21:24:37.272Z,6.68
2023-03-20T21:27:11.122Z,6.30
2023-03-20T21:32:06.024Z,6.57
2023-03-20T21:34:32.985Z,6.82
2023-03-20T21:37:06.123Z,7.40
2023-03-20T21:39:51.205Z,7.25
2023-03-20T21:42:18.568Z,6.57
2023-03-20T21:45:34.541Z,7.00
2023-03-20T21:56:40.087Z,6.95
2023-03-20T21:59:27.078Z,7.15
2023-03-20T22:02:00.211Z,7.93
2023-03-20T22:05:11.151Z,7.50
2023-03-20T22:07:42.084Z,8.20
2023-03-20T22:10:32.106Z,7.38
2023-03-20T22:13:20.983Z,6.72
2023-03-20T22:16:02.015Z,7.40
2023-03-20T22:19:17.797Z,7.68
2023-03-20T22:24:50.223Z,8.60
2023-03-20T22:30:08.436Z,8.85
2023-03-20T22:44:13.714Z,10.30
2023-03-20T22:46:22.736Z,10.32
2023-03-20T22:48:50.741Z,10.00
2023-03-20T22:51:18.388Z,10.68
2023-03-20T22:53:47.437Z,11.02
2023-03-20T22:56:14.516Z,11.15
2023-03-20T22:58:41.336Z,10.80
2023-03-20T23:01:09.841Z,11.15
2023-03-20T23:03:41.977Z,11.48
2023-03-20T23:06:29.510Z,11.65
2023-03-20T23:08:58.365Z,10.05
2023-03-20T23:11:27.713Z,11.55
2023-03-20T23:13:55.148Z,11.57
2023-03-20T23:16:22.131Z,10.93
2023-03-20T23:18:49.085Z,11.45
2023-03-20T23:21:15.927Z,11.65
2023-03-20T23:23:42.789Z,12.02
2023-03-20T23:26:16.233Z,12.38
2023-03-20T23:28:44.705Z,12.07
2023-03-20T23:31:16.169Z,11.50
2023-03-20T23:33:44.896Z,10.95
2023-03-20T23:36:21.768Z,11.98
2023-03-20T23:38:55.727Z,11.68
2023-03-20T23:41:43.442Z,11.20
2023-03-20T23:44:09.534Z,11.38
2023-03-20T23:46:36.393Z,11.05
2023-03-20T23:49:03.533Z,12.18
2023-03-20T23:51:30.480Z,11.40
2023-03-20T23:53:57.291Z,11.63
2023-03-20T23:56:24.186Z,11.63
2023-03-20T23:58:59.401Z,11.10
